AMX402 MMVR-MMMX
Flight info
| Callsign | AMX402 |
|---|---|
| Flight time | 0h 40m |
| Altitude | 28000 |
| Route | AXORO UT61 AVALI UT169 UMAVO UT101 ENAGA ENAGA3B |
| Aircraft | B738/M-SDE2E3FGHIRWXY/LB1 |
Departure
| Time | 2026-04-25 05:22 |
|---|---|
| Airport | General Heriberto Jara International Airport (MMVR) |
Arrival
| Time | 2026-04-25 06:02 |
|---|---|
| Airport | Mexico City Benito Juárez International Airport (MMMX) |
| Time | Latitude | Longitude | Altitude | Speed | Heading |
|---|---|---|---|---|---|
| 2026-04-25 05:03 | 19.14220 | -96.18441 | 119 ft | 0 kts | 101° |
| 2026-04-25 05:12 | 19.14222 | -96.18451 | 114 ft | 4 kts | 101° |
| 2026-04-25 05:12 | 19.14227 | -96.18477 | 115 ft | 3 kts | 101° |
| 2026-04-25 05:12 | 19.14235 | -96.18500 | 113 ft | 4 kts | 145° |
| 2026-04-25 05:13 | 19.14258 | -96.18505 | 113 ft | 4 kts | 190° |
| 2026-04-25 05:13 | 19.14269 | -96.18503 | 114 ft | 1 kts | 191° |
| 2026-04-25 05:16 | 19.14265 | -96.18504 | 114 ft | 2 kts | 190° |
| 2026-04-25 05:16 | 19.14243 | -96.18508 | 114 ft | 5 kts | 192° |
| 2026-04-25 05:16 | 19.14209 | -96.18534 | 117 ft | 7 kts | 246° |
| 2026-04-25 05:17 | 19.14213 | -96.18586 | 114 ft | 8 kts | 275° |
| 2026-04-25 05:17 | 19.14191 | -96.18637 | 114 ft | 8 kts | 227° |
| 2026-04-25 05:17 | 19.14152 | -96.18675 | 114 ft | 8 kts | 221° |
| 2026-04-25 05:17 | 19.14104 | -96.18718 | 114 ft | 11 kts | 221° |
| 2026-04-25 05:18 | 19.14040 | -96.18777 | 115 ft | 14 kts | 221° |
| 2026-04-25 05:18 | 19.13958 | -96.18852 | 114 ft | 18 kts | 217° |
| 2026-04-25 05:18 | 19.13831 | -96.18892 | 113 ft | 20 kts | 191° |
| 2026-04-25 05:18 | 19.13690 | -96.18921 | 116 ft | 20 kts | 191° |
| 2026-04-25 05:19 | 19.13551 | -96.18950 | 117 ft | 21 kts | 191° |
| 2026-04-25 05:19 | 19.13398 | -96.18982 | 116 ft | 23 kts | 191° |
| 2026-04-25 05:19 | 19.13240 | -96.19014 | 115 ft | 23 kts | 192° |
| 2026-04-25 05:19 | 19.13086 | -96.19046 | 114 ft | 22 kts | 191° |
| 2026-04-25 05:20 | 19.12969 | -96.19071 | 113 ft | 9 kts | 188° |
| 2026-04-25 05:20 | 19.12908 | -96.19052 | 114 ft | 9 kts | 144° |
| 2026-04-25 05:20 | 19.12851 | -96.19051 | 114 ft | 9 kts | 228° |
| 2026-04-25 05:20 | 19.12876 | -96.19092 | 115 ft | 9 kts | 11° |
| 2026-04-25 05:21 | 19.12939 | -96.19077 | 113 ft | 12 kts | 12° |
| 2026-04-25 05:21 | 19.13186 | -96.19025 | 115 ft | 72 kts | 11° |
| 2026-04-25 05:21 | 19.13925 | -96.18872 | 112 ft | 142 kts | 11° |
| 2026-04-25 05:21 | 19.15070 | -96.18634 | 327 ft | 179 kts | 12° |
| 2026-04-25 05:22 | 19.16276 | -96.18386 | 1185 ft | 175 kts | 12° |
| 2026-04-25 05:22 | 19.17536 | -96.18144 | 1804 ft | 189 kts | 12° |
| 2026-04-25 05:22 | 19.18905 | -96.17884 | 2248 ft | 214 kts | 11° |
| 2026-04-25 05:22 | 19.20452 | -96.17588 | 2560 ft | 235 kts | 11° |
| 2026-04-25 05:23 | 19.22087 | -96.17274 | 3083 ft | 243 kts | 10° |
| 2026-04-25 05:23 | 19.23743 | -96.16955 | 3722 ft | 247 kts | 11° |
| 2026-04-25 05:23 | 19.25444 | -96.16626 | 4472 ft | 249 kts | 11° |
| 2026-04-25 05:23 | 19.27181 | -96.16521 | 5201 ft | 251 kts | 350° |
| 2026-04-25 05:24 | 19.28807 | -96.17117 | 6005 ft | 248 kts | 326° |
| 2026-04-25 05:24 | 19.30067 | -96.18334 | 6697 ft | 246 kts | 302° |
| 2026-04-25 05:24 | 19.30757 | -96.19974 | 7356 ft | 245 kts | 279° |
| 2026-04-25 05:24 | 19.30855 | -96.21766 | 8047 ft | 245 kts | 264° |
| 2026-04-25 05:25 | 19.30630 | -96.23566 | 8698 ft | 249 kts | 271° |
| 2026-04-25 05:25 | 19.30984 | -96.25375 | 9365 ft | 253 kts | 290° |
| 2026-04-25 05:25 | 19.31776 | -96.27044 | 10049 ft | 255 kts | 302° |
| 2026-04-25 05:25 | 19.32894 | -96.28497 | 10713 ft | 256 kts | 319° |
| 2026-04-25 05:26 | 19.34401 | -96.29522 | 11370 ft | 258 kts | 332° |
| 2026-04-25 05:26 | 19.36003 | -96.30385 | 12048 ft | 259 kts | 333° |
| 2026-04-25 05:26 | 19.37624 | -96.31236 | 12714 ft | 261 kts | 333° |
| 2026-04-25 05:26 | 19.39233 | -96.32079 | 13377 ft | 262 kts | 333° |
| 2026-04-25 05:27 | 19.40876 | -96.32940 | 14000 ft | 264 kts | 333° |
| 2026-04-25 05:27 | 19.42523 | -96.33806 | 14618 ft | 265 kts | 333° |
| 2026-04-25 05:27 | 19.44177 | -96.34678 | 15247 ft | 266 kts | 333° |
| 2026-04-25 05:27 | 19.45840 | -96.35555 | 15850 ft | 268 kts | 332° |
| 2026-04-25 05:28 | 19.47514 | -96.36439 | 16457 ft | 269 kts | 332° |
| 2026-04-25 05:28 | 19.49199 | -96.37329 | 17058 ft | 271 kts | 332° |
| 2026-04-25 05:28 | 19.50894 | -96.38225 | 17671 ft | 274 kts | 332° |
| 2026-04-25 05:28 | 19.52604 | -96.39129 | 18235 ft | 276 kts | 332° |
| 2026-04-25 05:29 | 19.54326 | -96.40040 | 18753 ft | 278 kts | 332° |
| 2026-04-25 05:29 | 19.56066 | -96.40962 | 19261 ft | 280 kts | 332° |
| 2026-04-25 05:29 | 19.57822 | -96.41891 | 19770 ft | 283 kts | 332° |
| 2026-04-25 05:29 | 19.59587 | -96.42827 | 20292 ft | 285 kts | 332° |
| 2026-04-25 05:30 | 19.61364 | -96.43768 | 20812 ft | 287 kts | 332° |
| 2026-04-25 05:30 | 19.63160 | -96.44720 | 21305 ft | 289 kts | 332° |
| 2026-04-25 05:30 | 19.64967 | -96.45679 | 21802 ft | 292 kts | 332° |
| 2026-04-25 05:30 | 19.66767 | -96.46633 | 22289 ft | 294 kts | 332° |
| 2026-04-25 05:31 | 19.68603 | -96.47607 | 22771 ft | 297 kts | 332° |
| 2026-04-25 05:31 | 19.70497 | -96.48613 | 22897 ft | 313 kts | 332° |
| 2026-04-25 05:31 | 19.72490 | -96.49672 | 23023 ft | 327 kts | 332° |
| 2026-04-25 05:31 | 19.74526 | -96.50752 | 23596 ft | 323 kts | 332° |
| 2026-04-25 05:32 | 19.76444 | -96.51908 | 24280 ft | 315 kts | 318° |
| 2026-04-25 05:32 | 19.77758 | -96.53741 | 24691 ft | 316 kts | 294° |
| 2026-04-25 05:32 | 19.78373 | -96.55974 | 25184 ft | 315 kts | 277° |
| 2026-04-25 05:32 | 19.78402 | -96.58304 | 25672 ft | 316 kts | 270° |
| 2026-04-25 05:33 | 19.78281 | -96.60638 | 26084 ft | 318 kts | 268° |
| 2026-04-25 05:33 | 19.78126 | -96.62988 | 26517 ft | 319 kts | 268° |
| 2026-04-25 05:33 | 19.77967 | -96.65302 | 27005 ft | 317 kts | 268° |
| 2026-04-25 05:33 | 19.77810 | -96.67662 | 27426 ft | 318 kts | 268° |
| 2026-04-25 05:34 | 19.77658 | -96.70043 | 27541 ft | 329 kts | 268° |
| 2026-04-25 05:34 | 19.77506 | -96.72504 | 27681 ft | 339 kts | 269° |
| 2026-04-25 05:34 | 19.77353 | -96.75039 | 27760 ft | 348 kts | 268° |
| 2026-04-25 05:34 | 19.77222 | -96.77636 | 27794 ft | 357 kts | 269° |
| 2026-04-25 05:35 | 19.77069 | -96.80269 | 27794 ft | 367 kts | 268° |
| 2026-04-25 05:35 | 19.76902 | -96.83013 | 27808 ft | 377 kts | 268° |
| 2026-04-25 05:35 | 19.76729 | -96.85830 | 27819 ft | 387 kts | 268° |
| 2026-04-25 05:35 | 19.76552 | -96.88721 | 27821 ft | 397 kts | 268° |
| 2026-04-25 05:36 | 19.76374 | -96.91672 | 27829 ft | 405 kts | 268° |
| 2026-04-25 05:36 | 19.76194 | -96.94689 | 27836 ft | 413 kts | 268° |
| 2026-04-25 05:36 | 19.76011 | -96.97765 | 27836 ft | 421 kts | 268° |
| 2026-04-25 05:36 | 19.75797 | -97.01362 | 27841 ft | 429 kts | 268° |
| 2026-04-25 05:37 | 19.75415 | -97.07753 | 27867 ft | 440 kts | 268° |
| 2026-04-25 05:37 | 19.75021 | -97.14312 | 27872 ft | 449 kts | 268° |
| 2026-04-25 05:37 | 19.74618 | -97.20966 | 27870 ft | 454 kts | 268° |
| 2026-04-25 05:37 | 19.74211 | -97.27644 | 27870 ft | 448 kts | 268° |
| 2026-04-25 05:38 | 19.73811 | -97.34162 | 27630 ft | 439 kts | 268° |
| 2026-04-25 05:38 | 19.73417 | -97.40582 | 27135 ft | 432 kts | 268° |
| 2026-04-25 05:38 | 19.73026 | -97.46905 | 26578 ft | 425 kts | 268° |
| 2026-04-25 05:38 | 19.72640 | -97.53124 | 25558 ft | 418 kts | 268° |
| 2026-04-25 05:39 | 19.72262 | -97.59167 | 24596 ft | 412 kts | 268° |
| 2026-04-25 05:39 | 19.71882 | -97.65208 | 23620 ft | 408 kts | 268° |
| 2026-04-25 05:39 | 19.71504 | -97.71202 | 22487 ft | 405 kts | 268° |
| 2026-04-25 05:39 | 19.71127 | -97.77128 | 21450 ft | 399 kts | 267° |
| 2026-04-25 05:40 | 19.70755 | -97.82970 | 20471 ft | 395 kts | 267° |
| 2026-04-25 05:40 | 19.70384 | -97.88746 | 19502 ft | 390 kts | 267° |
| 2026-04-25 05:40 | 19.70014 | -97.94481 | 18530 ft | 388 kts | 267° |
| 2026-04-25 05:40 | 19.69643 | -98.00211 | 17342 ft | 388 kts | 267° |
| 2026-04-25 05:41 | 19.69271 | -98.05906 | 16280 ft | 385 kts | 267° |
| 2026-04-25 05:41 | 19.68903 | -98.11539 | 15297 ft | 380 kts | 268° |
| 2026-04-25 05:41 | 19.68542 | -98.17026 | 14536 ft | 370 kts | 268° |
| 2026-04-25 05:41 | 19.68192 | -98.22312 | 14217 ft | 348 kts | 268° |
| 2026-04-25 05:42 | 19.67861 | -98.27298 | 13892 ft | 329 kts | 268° |
| 2026-04-25 05:42 | 19.67487 | -98.32000 | 13695 ft | 309 kts | 263° |
| 2026-04-25 05:42 | 19.66685 | -98.36371 | 13680 ft | 294 kts | 261° |
| 2026-04-25 05:42 | 19.65917 | -98.40557 | 13703 ft | 287 kts | 261° |
| 2026-04-25 05:43 | 19.65181 | -98.44714 | 13643 ft | 287 kts | 261° |
| 2026-04-25 05:43 | 19.64617 | -98.47905 | 13453 ft | 287 kts | 261° |
| 2026-04-25 05:43 | 19.64250 | -98.49979 | 13321 ft | 284 kts | 261° |
| 2026-04-25 05:43 | 19.63887 | -98.52032 | 13202 ft | 281 kts | 261° |
| 2026-04-25 05:44 | 19.63527 | -98.54065 | 13083 ft | 280 kts | 261° |
| 2026-04-25 05:44 | 19.63169 | -98.56087 | 12971 ft | 278 kts | 261° |
| 2026-04-25 05:44 | 19.62818 | -98.58067 | 12863 ft | 277 kts | 261° |
| 2026-04-25 05:44 | 19.62460 | -98.60089 | 12759 ft | 281 kts | 261° |
| 2026-04-25 05:45 | 19.62097 | -98.62137 | 12650 ft | 284 kts | 261° |
| 2026-04-25 05:45 | 19.61732 | -98.64193 | 12529 ft | 283 kts | 261° |
| 2026-04-25 05:45 | 19.61369 | -98.66237 | 12414 ft | 282 kts | 261° |
| 2026-04-25 05:45 | 19.61007 | -98.68273 | 12321 ft | 281 kts | 261° |
| 2026-04-25 05:46 | 19.60646 | -98.70305 | 12219 ft | 280 kts | 260° |
| 2026-04-25 05:46 | 19.60286 | -98.72326 | 12136 ft | 278 kts | 261° |
| 2026-04-25 05:46 | 19.59931 | -98.74320 | 12026 ft | 271 kts | 260° |
| 2026-04-25 05:46 | 19.59585 | -98.76259 | 11935 ft | 264 kts | 261° |
| 2026-04-25 05:47 | 19.59248 | -98.78141 | 11842 ft | 256 kts | 260° |
| 2026-04-25 05:47 | 19.58788 | -98.79949 | 11657 ft | 255 kts | 245° |
| 2026-04-25 05:47 | 19.57920 | -98.81594 | 11441 ft | 257 kts | 239° |
| 2026-04-25 05:47 | 19.56947 | -98.83196 | 11201 ft | 259 kts | 238° |
| 2026-04-25 05:48 | 19.56000 | -98.84788 | 10973 ft | 256 kts | 239° |
| 2026-04-25 05:48 | 19.55091 | -98.86395 | 10694 ft | 252 kts | 240° |
| 2026-04-25 05:48 | 19.54211 | -98.87974 | 10443 ft | 244 kts | 239° |
| 2026-04-25 05:48 | 19.53363 | -98.89495 | 10212 ft | 234 kts | 239° |
| 2026-04-25 05:49 | 19.52552 | -98.90948 | 10016 ft | 226 kts | 239° |
| 2026-04-25 05:49 | 19.51765 | -98.92357 | 9772 ft | 217 kts | 239° |
| 2026-04-25 05:49 | 19.51019 | -98.93694 | 9535 ft | 207 kts | 239° |
| 2026-04-25 05:49 | 19.50297 | -98.94986 | 9363 ft | 200 kts | 239° |
| 2026-04-25 05:50 | 19.49606 | -98.96226 | 9274 ft | 189 kts | 238° |
| 2026-04-25 05:50 | 19.48961 | -98.97382 | 9199 ft | 174 kts | 238° |
| 2026-04-25 05:50 | 19.48352 | -98.98474 | 9046 ft | 169 kts | 238° |
| 2026-04-25 05:50 | 19.47761 | -98.99531 | 8895 ft | 169 kts | 237° |
| 2026-04-25 05:51 | 19.47155 | -99.00617 | 8668 ft | 171 kts | 237° |
| 2026-04-25 05:51 | 19.46555 | -99.01694 | 8350 ft | 169 kts | 238° |
| 2026-04-25 05:51 | 19.45976 | -99.02731 | 8588 ft | 164 kts | 237° |
| 2026-04-25 05:51 | 19.45375 | -99.03807 | 8791 ft | 178 kts | 238° |
| 2026-04-25 05:52 | 19.44714 | -99.04984 | 9071 ft | 191 kts | 238° |
| 2026-04-25 05:52 | 19.44012 | -99.06239 | 9337 ft | 203 kts | 239° |
| 2026-04-25 05:52 | 19.43278 | -99.07552 | 9583 ft | 212 kts | 239° |
| 2026-04-25 05:52 | 19.42527 | -99.08892 | 9878 ft | 215 kts | 239° |
| 2026-04-25 05:53 | 19.41747 | -99.10285 | 10122 ft | 227 kts | 239° |
| 2026-04-25 05:53 | 19.40914 | -99.11768 | 10281 ft | 245 kts | 239° |
| 2026-04-25 05:53 | 19.40024 | -99.13356 | 10588 ft | 253 kts | 240° |
| 2026-04-25 05:53 | 19.38921 | -99.14811 | 10977 ft | 257 kts | 217° |
| 2026-04-25 05:54 | 19.37272 | -99.15522 | 11370 ft | 261 kts | 187° |
| 2026-04-25 05:54 | 19.35463 | -99.15272 | 11748 ft | 265 kts | 156° |
| 2026-04-25 05:54 | 19.33232 | -99.12372 | 12456 ft | 264 kts | 97° |
| 2026-04-25 05:55 | 19.33385 | -99.10482 | 12489 ft | 260 kts | 70° |
| 2026-04-25 05:55 | 19.34033 | -99.08688 | 12497 ft | 261 kts | 66° |
| 2026-04-25 05:55 | 19.34720 | -99.06907 | 12495 ft | 260 kts | 66° |
| 2026-04-25 05:55 | 19.35411 | -99.05117 | 12514 ft | 272 kts | 66° |
| 2026-04-25 05:56 | 19.36139 | -99.03209 | 12512 ft | 281 kts | 66° |
| 2026-04-25 05:56 | 19.36870 | -99.01269 | 12502 ft | 283 kts | 66° |
| 2026-04-25 05:56 | 19.37585 | -98.99352 | 12485 ft | 283 kts | 66° |
| 2026-04-25 05:56 | 19.38321 | -98.97418 | 12477 ft | 281 kts | 62° |
| 2026-04-25 05:57 | 19.39428 | -98.95722 | 12473 ft | 274 kts | 47° |
| 2026-04-25 05:57 | 19.40691 | -98.94304 | 12437 ft | 259 kts | 45° |
| 2026-04-25 05:57 | 19.41940 | -98.92980 | 12413 ft | 247 kts | 41° |
| 2026-04-25 05:57 | 19.43193 | -98.91771 | 12411 ft | 239 kts | 39° |
| 2026-04-25 05:58 | 19.44410 | -98.90661 | 12253 ft | 226 kts | 32° |
| 2026-04-25 05:58 | 19.45809 | -98.90164 | 12092 ft | 205 kts | 356° |
| 2026-04-25 05:58 | 19.47170 | -98.90476 | 11735 ft | 199 kts | 335° |
| 2026-04-25 05:58 | 19.48401 | -98.91161 | 11247 ft | 204 kts | 329° |
| 2026-04-25 05:59 | 19.49563 | -98.92026 | 10847 ft | 203 kts | 310° |
| 2026-04-25 05:59 | 19.50057 | -98.92834 | 10571 ft | 204 kts | 292° |
| 2026-04-25 05:59 | 19.50304 | -98.94304 | 10245 ft | 203 kts | 265° |
| 2026-04-25 05:59 | 19.49688 | -98.96110 | 9885 ft | 190 kts | 238° |
| 2026-04-25 06:00 | 19.49237 | -98.96909 | 9671 ft | 186 kts | 238° |
| 2026-04-25 06:00 | 19.48597 | -98.98037 | 9429 ft | 170 kts | 239° |
| 2026-04-25 06:00 | 19.48005 | -98.99095 | 9160 ft | 165 kts | 238° |
| 2026-04-25 06:00 | 19.47421 | -99.00143 | 9107 ft | 167 kts | 238° |
| 2026-04-25 06:01 | 19.46860 | -99.01187 | 8956 ft | 157 kts | 238° |
| 2026-04-25 06:01 | 19.46308 | -99.02201 | 8598 ft | 159 kts | 237° |
| 2026-04-25 06:01 | 19.45736 | -99.03181 | 8042 ft | 157 kts | 236° |
| 2026-04-25 06:01 | 19.45167 | -99.04175 | 7655 ft | 157 kts | 237° |
| 2026-04-25 06:02 | 19.44621 | -99.05160 | 7378 ft | 151 kts | 237° |
| 2026-04-25 06:02 | 19.44124 | -99.06031 | 7300 ft | 124 kts | 238° |
| 2026-04-25 06:02 | 19.43804 | -99.06618 | 7302 ft | 62 kts | 239° |
| 2026-04-25 06:02 | 19.43666 | -99.06863 | 7301 ft | 29 kts | 239° |
| 2026-04-25 06:03 | 19.43599 | -99.06975 | 7301 ft | 10 kts | 220° |
| 2026-04-25 06:03 | 19.43548 | -99.06960 | 7302 ft | 8 kts | 139° |
| 2026-04-25 06:03 | 19.43510 | -99.06923 | 7302 ft | 7 kts | 138° |
| 2026-04-25 06:03 | 19.43472 | -99.06888 | 7302 ft | 7 kts | 138° |
| 2026-04-25 06:04 | 19.43435 | -99.06854 | 7302 ft | 7 kts | 153° |
| 2026-04-25 06:04 | 19.43396 | -99.06876 | 7302 ft | 7 kts | 234° |
| 2026-04-25 06:04 | 19.43371 | -99.06919 | 7302 ft | 7 kts | 240° |
| 2026-04-25 06:04 | 19.43347 | -99.06962 | 7302 ft | 7 kts | 238° |